VIA003 SVMI-TNCM
Flight info
| Callsign | VIA003 |
|---|---|
| Flight time | 1h 15m |
| Altitude | 33000 |
| Route | DARPA2 DARPA G432 LRS DCT MILOK M576 DANDE DCT ULUBA DCT |
| Aircraft | MD11/H-SDE1FGHIJ1RWXYZ/LB1 |
Departure
| Time | 2025-10-09 13:50 |
|---|---|
| Airport | Maiquetía Simón Bolívar International Airport (SVMI) |
Arrival
| Time | 2025-10-09 15:06 |
|---|---|
| Airport | Princess Juliana International Airport (TNCM) |
| Time | Latitude | Longitude | Altitude | Speed | Heading |
|---|---|---|---|---|---|
| 2025-10-09 13:32 | 10.60108 | -67.00614 | 378 ft | 0 kts | 358° |
| 2025-10-09 13:38 | 10.60092 | -67.00613 | 378 ft | 2 kts | 358° |
| 2025-10-09 13:39 | 10.60047 | -67.00612 | 379 ft | 2 kts | 358° |
| 2025-10-09 13:40 | 10.59994 | -67.00629 | 379 ft | 2 kts | 66° |
| 2025-10-09 13:40 | 10.59991 | -67.00640 | 379 ft | 0 kts | 88° |
| 2025-10-09 13:44 | 10.59997 | -67.00436 | 382 ft | 20 kts | 88° |
| 2025-10-09 13:45 | 10.60107 | -67.00268 | 379 ft | 16 kts | 68° |
| 2025-10-09 13:45 | 10.60119 | -66.99992 | 376 ft | 22 kts | 87° |
| 2025-10-09 13:46 | 10.60134 | -66.99821 | 371 ft | 24 kts | 88° |
| 2025-10-09 13:46 | 10.59918 | -66.99660 | 374 ft | 8 kts | 146° |
| 2025-10-09 13:47 | 10.59909 | -66.99616 | 373 ft | 0 kts | 79° |
| 2025-10-09 13:48 | 10.60168 | -66.98560 | 312 ft | 148 kts | 76° |
| 2025-10-09 13:49 | 10.60719 | -66.96129 | 990 ft | 182 kts | 78° |
| 2025-10-09 13:49 | 10.62515 | -66.94244 | 1703 ft | 218 kts | 11° |
| 2025-10-09 13:50 | 10.65643 | -66.94936 | 2673 ft | 245 kts | 339° |
| 2025-10-09 13:50 | 10.68992 | -66.96060 | 3742 ft | 261 kts | 346° |
| 2025-10-09 13:51 | 10.70809 | -66.96352 | 4197 ft | 269 kts | 359° |
| 2025-10-09 13:51 | 10.74635 | -66.95903 | 5465 ft | 280 kts | 14° |
| 2025-10-09 13:52 | 10.80410 | -66.94299 | 7669 ft | 293 kts | 16° |
| 2025-10-09 13:52 | 10.84417 | -66.93276 | 9078 ft | 300 kts | 14° |
| 2025-10-09 13:53 | 10.88515 | -66.92275 | 10535 ft | 303 kts | 15° |
| 2025-10-09 13:53 | 10.92652 | -66.91341 | 11868 ft | 307 kts | 13° |
| 2025-10-09 13:54 | 10.96895 | -66.90423 | 13174 ft | 311 kts | 14° |
| 2025-10-09 13:54 | 11.01175 | -66.89459 | 14247 ft | 321 kts | 14° |
| 2025-10-09 13:55 | 11.05800 | -66.88435 | 15004 ft | 352 kts | 14° |
| 2025-10-09 13:55 | 11.10932 | -66.87292 | 15396 ft | 398 kts | 14° |
| 2025-10-09 13:56 | 11.16601 | -66.85912 | 15968 ft | 435 kts | 15° |
| 2025-10-09 13:56 | 11.22651 | -66.84443 | 17316 ft | 450 kts | 14° |
| 2025-10-09 13:57 | 11.28785 | -66.82973 | 18775 ft | 459 kts | 15° |
| 2025-10-09 13:57 | 11.35122 | -66.81434 | 20118 ft | 469 kts | 15° |
| 2025-10-09 13:58 | 11.41563 | -66.79890 | 21467 ft | 478 kts | 15° |
| 2025-10-09 13:58 | 11.48077 | -66.78309 | 22675 ft | 487 kts | 15° |
| 2025-10-09 13:59 | 11.51415 | -66.77508 | 23362 ft | 491 kts | 14° |
| 2025-10-09 13:59 | 11.58164 | -66.75884 | 24485 ft | 500 kts | 14° |
| 2025-10-09 14:00 | 11.75437 | -66.71716 | 27583 ft | 513 kts | 14° |
| 2025-10-09 14:02 | 11.99450 | -66.65948 | 32847 ft | 496 kts | 14° |
| 2025-10-09 14:04 | 12.29459 | -66.58939 | 32989 ft | 488 kts | 14° |
| 2025-10-09 14:06 | 12.52794 | -66.53486 | 34880 ft | 484 kts | 14° |
| 2025-10-09 14:08 | 12.82416 | -66.46549 | 34955 ft | 484 kts | 14° |
| 2025-10-09 14:10 | 13.05487 | -66.41121 | 34953 ft | 485 kts | 14° |
| 2025-10-09 14:12 | 13.35265 | -66.34113 | 34954 ft | 486 kts | 14° |
| 2025-10-09 14:14 | 13.61749 | -66.27871 | 34955 ft | 487 kts | 14° |
| 2025-10-09 14:16 | 13.88337 | -66.21569 | 34961 ft | 488 kts | 14° |
| 2025-10-09 14:18 | 14.14929 | -66.15264 | 34968 ft | 489 kts | 14° |
| 2025-10-09 14:20 | 14.41512 | -66.08959 | 34976 ft | 488 kts | 14° |
| 2025-10-09 14:22 | 14.64768 | -66.03404 | 34980 ft | 489 kts | 14° |
| 2025-10-09 14:24 | 14.94682 | -65.96262 | 34987 ft | 489 kts | 14° |
| 2025-10-09 14:26 | 15.18012 | -65.90688 | 34988 ft | 489 kts | 13° |
| 2025-10-09 14:28 | 15.43173 | -65.74264 | 34961 ft | 487 kts | 45° |
| 2025-10-09 14:30 | 15.60384 | -65.57198 | 34980 ft | 488 kts | 44° |
| 2025-10-09 14:32 | 15.82518 | -65.35211 | 34989 ft | 488 kts | 44° |
| 2025-10-09 14:34 | 16.02180 | -65.15691 | 35005 ft | 488 kts | 44° |
| 2025-10-09 14:36 | 16.21900 | -64.96069 | 34997 ft | 490 kts | 44° |
| 2025-10-09 14:38 | 16.39093 | -64.78820 | 34989 ft | 490 kts | 44° |
| 2025-10-09 14:40 | 16.61395 | -64.56441 | 30648 ft | 496 kts | 44° |
| 2025-10-09 14:42 | 16.78964 | -64.38831 | 24263 ft | 499 kts | 44° |
| 2025-10-09 14:43 | 16.86363 | -64.31398 | 22169 ft | 483 kts | 45° |
| 2025-10-09 14:43 | 16.91155 | -64.26542 | 20868 ft | 473 kts | 45° |
| 2025-10-09 14:44 | 16.95891 | -64.21764 | 19422 ft | 468 kts | 44° |
| 2025-10-09 14:44 | 17.00546 | -64.17054 | 18059 ft | 461 kts | 44° |
| 2025-10-09 14:45 | 17.05126 | -64.12431 | 16768 ft | 452 kts | 44° |
| 2025-10-09 14:45 | 17.07370 | -64.10167 | 16136 ft | 447 kts | 44° |
| 2025-10-09 14:46 | 17.11796 | -64.05688 | 14859 ft | 439 kts | 44° |
| 2025-10-09 14:46 | 17.18298 | -63.99124 | 14089 ft | 427 kts | 44° |
| 2025-10-09 14:47 | 17.22546 | -63.94795 | 13287 ft | 419 kts | 44° |
| 2025-10-09 14:47 | 17.26726 | -63.90538 | 12548 ft | 415 kts | 44° |
| 2025-10-09 14:48 | 17.30852 | -63.86351 | 11887 ft | 412 kts | 44° |
| 2025-10-09 14:48 | 17.34845 | -63.82286 | 11196 ft | 389 kts | 45° |
| 2025-10-09 14:49 | 17.38551 | -63.78526 | 10942 ft | 345 kts | 45° |
| 2025-10-09 14:49 | 17.40230 | -63.76820 | 10936 ft | 320 kts | 45° |
| 2025-10-09 14:50 | 17.44748 | -63.72226 | 10442 ft | 285 kts | 45° |
| 2025-10-09 14:50 | 17.47589 | -63.69339 | 10192 ft | 284 kts | 45° |
| 2025-10-09 14:51 | 17.50476 | -63.66521 | 9809 ft | 283 kts | 40° |
| 2025-10-09 14:51 | 17.53665 | -63.64080 | 9328 ft | 280 kts | 35° |
| 2025-10-09 14:52 | 17.56903 | -63.61803 | 8860 ft | 278 kts | 36° |
| 2025-10-09 14:52 | 17.60078 | -63.59507 | 8384 ft | 275 kts | 36° |
| 2025-10-09 14:53 | 17.63229 | -63.57201 | 7918 ft | 271 kts | 37° |
| 2025-10-09 14:53 | 17.64751 | -63.56092 | 7741 ft | 261 kts | 36° |
| 2025-10-09 14:54 | 17.69029 | -63.52983 | 7154 ft | 239 kts | 37° |
| 2025-10-09 14:54 | 17.71779 | -63.50982 | 6776 ft | 239 kts | 37° |
| 2025-10-09 14:55 | 17.74515 | -63.48996 | 6378 ft | 238 kts | 37° |
| 2025-10-09 14:55 | 17.77251 | -63.47014 | 5969 ft | 236 kts | 37° |
| 2025-10-09 14:56 | 17.79872 | -63.45114 | 5617 ft | 216 kts | 37° |
| 2025-10-09 14:56 | 17.82336 | -63.43324 | 5317 ft | 214 kts | 37° |
| 2025-10-09 14:57 | 17.83551 | -63.42442 | 5139 ft | 213 kts | 37° |
| 2025-10-09 14:57 | 17.86010 | -63.40655 | 4774 ft | 212 kts | 37° |
| 2025-10-09 14:58 | 17.88437 | -63.38900 | 4406 ft | 211 kts | 37° |
| 2025-10-09 14:58 | 17.92034 | -63.36293 | 3859 ft | 206 kts | 37° |
| 2025-10-09 14:59 | 17.94365 | -63.34603 | 3512 ft | 197 kts | 38° |
| 2025-10-09 14:59 | 17.96628 | -63.32961 | 3277 ft | 196 kts | 38° |
| 2025-10-09 15:00 | 17.98880 | -63.31329 | 2877 ft | 195 kts | 38° |
| 2025-10-09 15:00 | 18.01023 | -63.29682 | 2592 ft | 181 kts | 51° |
| 2025-10-09 15:01 | 18.01929 | -63.27288 | 2184 ft | 177 kts | 83° |
| 2025-10-09 15:01 | 18.02055 | -63.26031 | 1875 ft | 165 kts | 85° |
| 2025-10-09 15:02 | 18.02420 | -63.22535 | 1783 ft | 163 kts | 82° |
| 2025-10-09 15:02 | 18.02755 | -63.20195 | 1712 ft | 163 kts | 82° |
| 2025-10-09 15:03 | 18.03085 | -63.17829 | 1295 ft | 165 kts | 82° |
| 2025-10-09 15:03 | 18.03442 | -63.15405 | 816 ft | 169 kts | 82° |
| 2025-10-09 15:04 | 18.03796 | -63.12975 | 263 ft | 166 kts | 81° |
| 2025-10-09 15:04 | 18.04131 | -63.10638 | 24 ft | 123 kts | 82° |
| 2025-10-09 15:05 | 18.04250 | -63.09943 | 20 ft | 13 kts | 55° |
| 2025-10-09 15:05 | 18.04277 | -63.09868 | 20 ft | 9 kts | 136° |
| 2025-10-09 15:06 | 18.04218 | -63.10013 | 21 ft | 14 kts | 262° |
| 2025-10-09 15:06 | 18.04168 | -63.10370 | 23 ft | 19 kts | 262° |
| 2025-10-09 15:07 | 18.04126 | -63.10672 | 23 ft | 22 kts | 259° |
| 2025-10-09 15:07 | 18.04074 | -63.11028 | 23 ft | 26 kts | 262° |
| 2025-10-09 15:08 | 18.04073 | -63.11285 | 24 ft | 12 kts | 344° |
| 2025-10-09 15:08 | 18.04241 | -63.11322 | 24 ft | 9 kts | 309° |
| 2025-10-09 15:09 | 18.04237 | -63.11393 | 24 ft | 8 kts | 258° |
| 2025-10-09 15:09 | 18.04233 | -63.11486 | 24 ft | 2 kts | 342° |
| 2025-10-09 15:10 | 18.04259 | -63.11489 | 26 ft | 6 kts | 351° |
| 2025-10-09 15:10 | 18.04300 | -63.11496 | 28 ft | 0 kts | 351° |